Aviation Digital Data Service (ADDS)

Output produced by METARs form (1827 UTC 22 November 2017)
found at http://www.aviationweather.gov/adds/metars/
 
UTDD 221800Z VRB01MPS 9000 NSC 07/M09 Q1014 R09/D NOSIG RMK QFE692/0923
TAF UTDD 221800Z 2219/2307 VRB02MPS 5000 FU NSC 
     TEMPO 2219/2307 2100 BR FU
       
UTAA 221800Z 22004KT 9999 NSC 13/M02 Q1006 R88/CLRD70 NOSIG
TAF UTAA 221630Z 2218/2318 26016KT 5000 SCT050CB BKN050 530009 
     TEMPO 2218/2221 VRB04KT 1500 HZ 
     TEMPO 2300/2304 28014G24KT 3000 DRDU 
     TEMPO 2316/2318 30016G26KT 3000 BLDU 
     PROB40 
     TEMPO 2312/2318 -TSRA
       
UTAK 221800Z 35017KT 9999 OVC022 13/09 Q1008 R34L/CLRD70 NOSIG
TAF UTAK 221630Z 2218/2318 33026G36KT 5000 BKN016 OVC100 530007 
     TEMPO 2218/2221 33018G28KT BKN012 SCT023CB 
     TEMPO 2221/2303 03018KT -SHRA BKN007 
     PROB40 
     TEMPO 2221/2303 -TSRA 570003 
     BECMG 2306/2312 30018G28KT BKN020 BKN100
       
UTAM 221800Z 16010KT 6000 OVC100 20/M05 Q1008 NOSIG
TAF UTAM 221640Z 2218/2318 19012G22KT 5000 SCT050CB SCT050 BKN100 530007 
     TEMPO 2218/2224 17014G24KT 2000 BLDU BKN050 
     PROB40 
     TEMPO 2218/2224 -TSSHRA 
     BECMG 2300/2301 23014KT 
     TEMPO 2301/2306 3000 HZ
       
UTAT 221800Z 12008KT CAVOK 12/M02 Q1005 R08/CLRD70 NOSIG
TAF UTAT 221702Z 2218/2318 11016KT 6000 SCT050 BKN100 530005 
     TEMPO 2218/2224 07016KT
       
UTAV 221800Z 14004KT 7000 BKN100 10/M04 Q1011 NOSIG
TAF UTAV 221630Z 2218/2318 10014KT 5000 SCT050CB BKN100 530005 
     TEMPO 2218/2224 16012G22KT 
     TEMPO 2300/2312 18016G26KT 3000 DRDU
       
UTDD 221800Z VRB01MPS 9000 NSC 07/M09 Q1014 R09/D NOSIG RMK QFE692/0923
TAF UTDD 221800Z 2219/2307 VRB02MPS 5000 FU NSC 
     TEMPO 2219/2307 2100 BR FU
       
UTDK 221800Z 03002MPS 9999 NSC 08/M08 Q1014 R01/09//70 RMK QFE703/0937
TAF UTDK 221800Z 2219/2304 03005MPS 6000 NSC 
     TEMPO 2219/2304 VRB02MPS
       
UTDL 221800Z 07006MPS 7000 FEW230 10/M06 Q1015 88CLRD70 NOSIG RMK QFE722/0963
TAF UTDL 221800Z 2219/2304 07005MPS 7000 NSC 
     TEMPO 2222/2304 3000 BR
       
UTDT 221800Z 08001MPS 6000 FEW130 06/M03 Q1013 35////// RMK QFE720/0960
TAF UTDT 221800Z 2219/2304 VRB02MPS 5000 BR NSC 
     TEMPO 2219/2304 2100 BR
       
UTFA 221800Z 00000KT 1800 BR NSC 00/M03 Q1017 R88/09//70
TAF UTFA 221800Z 2219/2304 04008KT 1500 BR NSC 
     TEMPO 2219/2304 VRB02KT 0700 FG SCT003
       
TAF UTFF 220900 2210/2219 34008KT 5000 BR NSC 
     TEMPO 2210/2219 VRB02KT 1200 BR
       
UTFN 221800Z 34006KT 9999 NSC 04/M08 Q1016 R28/CLRD70 NOSIG
TAF UTFN 221700Z 2218/2318 33010KT 7000 NSC 
     TEMPO 2218/2306 VRB02KT 2100 BR
       
UTNN 221800Z 08004KT CAVOK 10/M09 Q1005 R15/CLRD60 NOSIG
TAF UTNN 221700Z 2218/2318 VRB04KT CAVOK 
     TEMPO 2306/2312 32012G22KT SCT040 BKN100
       
UTNU 221830Z 12008KT 6000 NSC 12/M03 Q1006 R13/CLRD70 NOSIG
TAF UTNU 221700Z 2218/2318 14010G20KT 6000 NSC 
     TEMPO 2218/2224 12008KT 3000 BR SCT050 BKN100
       
UTSA 221800Z 15004KT 9999 NSC 11/M14 Q1011 R07/CLRD70 NOSIG
TAF UTSA 221701Z 2218/2318 VRB03KT 7000 NSC 
     TEMPO 2218/2304 11012G22KT 3500 FU FEW050CB
       
UTSB 221800Z 07002KT 6000 NSC 08/M06 Q1011 R01/CLRD70 NOSIG
TAF UTSB 221700Z 2218/2318 VRB03KT 7000 NSC 
     TEMPO 2218/2304 13012G22KT FEW050CB
       
UTSK 221800Z 13004KT CAVOK 08/M06 Q1012 R16/CLRD70
TAF UTSK 221157Z 2213/2222 16010G20KT CAVOK 
     TEMPO 2213/2219 VRB04KT 3500 HZ
       
UTSS 221800Z 12008KT 6000 NSC 09/M10 Q1012 R09/70D NOSIG
TAF UTSS 221700Z 2218/2318 14010G20KT 9999 NSC 
     TEMPO 2218/2303 24016G26KT 3500 DU
       
UTST 221800Z VRB02KT 7000 NSC 03/M02 Q1012 R88/CLRD70 NOSIG
TAF UTST 221700Z 2218/2318 09006G16KT 6000 SCT060CB BKN100 
     TEMPO 2218/2304 03006G16KT 2000 BR
       
UTTT 221800Z 04004KT 4000 FU NSC 06/M04 Q1013 R08R/CLRD70 NOSIG
TAF UTTT 221700Z 2218/2318 06010KT 6000 NSC 
     TEMPO 2218/2303 3000 BR FU
       
UTDL 221800Z 07006MPS 7000 FEW230 10/M06 Q1015 88CLRD70 NOSIG RMK QFE722/0963
TAF UTDL 221800Z 2219/2304 07005MPS 7000 NSC 
     TEMPO 2222/2304 3000 BR